createdAt,value
2022-09-23T00:02:09.298Z,2.30
2022-09-23T00:04:35.692Z,2.22
2022-09-23T00:07:02.044Z,2.00
2022-09-23T00:09:29.724Z,2.50
2022-09-23T00:11:56.256Z,2.50
2022-09-23T00:14:22.636Z,2.75
2022-09-23T00:16:49.018Z,1.92
2022-09-23T00:19:15.427Z,2.55
2022-09-23T00:21:41.819Z,2.40
2022-09-23T00:24:08.220Z,2.50
2022-09-23T00:26:35.897Z,2.47
2022-09-23T00:29:02.320Z,2.65
2022-09-23T00:31:28.659Z,2.25
2022-09-23T00:33:55.942Z,2.50
2022-09-23T00:36:22.949Z,2.38
2022-09-23T00:38:49.327Z,2.08
2022-09-23T00:41:15.753Z,2.30
2022-09-23T00:43:46.296Z,2.47
2022-09-23T00:46:17.450Z,2.08
2022-09-23T00:48:44.897Z,2.55
2022-09-23T00:51:15.899Z,2.30
2022-09-23T00:53:42.332Z,2.70
2022-09-23T00:56:10.399Z,2.30
2022-09-23T00:58:40.597Z,2.42
2022-09-23T01:01:08.918Z,2.78
2022-09-23T01:03:35.545Z,2.25
2022-09-23T01:06:02.083Z,2.72
2022-09-23T01:08:28.901Z,2.55
2022-09-23T01:11:03.810Z,2.40
2022-09-23T01:13:41.749Z,2.40
2022-09-23T01:16:18.575Z,2.40
2022-09-23T01:18:51.325Z,2.35
2022-09-23T01:21:31.563Z,3.08
2022-09-23T01:24:23.791Z,2.15
2022-09-23T01:27:01.438Z,2.50
2022-09-23T01:30:15.614Z,2.83
2022-09-23T01:33:00.811Z,2.65
2022-09-23T01:35:34.800Z,2.60
2022-09-23T01:38:13.502Z,2.97
2022-09-23T01:40:48.901Z,3.15
2022-09-23T01:43:21.387Z,2.63
2022-09-23T01:45:49.195Z,3.00
2022-09-23T01:48:23.629Z,2.33
2022-09-23T01:50:54.485Z,2.90
2022-09-23T01:53:26.729Z,2.33
2022-09-23T01:55:56.647Z,2.83
2022-09-23T01:58:28.008Z,2.63
2022-09-23T02:01:00.294Z,2.80
2022-09-23T02:03:32.690Z,2.70
2022-09-23T02:06:03.194Z,3.25
2022-09-23T02:08:33.672Z,2.70
2022-09-23T02:11:04.888Z,2.80
2022-09-23T02:13:38.536Z,2.53
2022-09-23T02:16:10.612Z,2.38
2022-09-23T02:18:44.252Z,2.53
2022-09-23T02:21:10.650Z,2.50
2022-09-23T02:23:43.142Z,2.50
2022-09-23T02:26:17.685Z,2.72
2022-09-23T02:28:51.707Z,2.63
2022-09-23T02:31:25.588Z,2.42
2022-09-23T02:33:57.359Z,2.90
2022-09-23T02:36:29.308Z,3.05
2022-09-23T02:39:01.137Z,2.65
2022-09-23T02:41:32.728Z,2.15
2022-09-23T02:44:06.004Z,2.55
2022-09-23T02:46:33.223Z,2.50
2022-09-23T02:49:05.682Z,3.00
2022-09-23T02:51:33.892Z,2.72
2022-09-23T02:54:01.127Z,2.25
2022-09-23T02:56:27.479Z,2.90
2022-09-23T02:58:55.028Z,2.20
2022-09-23T03:01:33.256Z,2.08
2022-09-23T03:04:10.214Z,2.63
2022-09-23T03:06:46.459Z,2.80
2022-09-23T03:09:21.929Z,2.20
2022-09-23T03:11:55.588Z,2.72
2022-09-23T03:14:29.325Z,2.70
2022-09-23T03:19:32.298Z,2.65
2022-09-23T03:22:02.439Z,2.70
2022-09-23T03:24:30.688Z,2.58
2022-09-23T03:27:00.878Z,2.45
2022-09-23T03:29:28.054Z,2.15
2022-09-23T03:31:56.174Z,2.53
2022-09-23T03:34:26.584Z,2.53
2022-09-23T03:36:56.654Z,2.60
2022-09-23T03:39:31.325Z,2.03
2022-09-23T03:42:02.044Z,1.95
2022-09-23T03:44:29.292Z,1.98
2022-09-23T03:46:58.621Z,2.42
2022-09-23T03:49:27.834Z,2.40
2022-09-23T03:51:56.005Z,2.60
2022-09-23T03:54:22.666Z,2.17
2022-09-23T03:56:49.009Z,2.15
2022-09-23T03:59:15.771Z,1.95
2022-09-23T04:01:42.466Z,2.03
2022-09-23T04:04:08.849Z,2.15
2022-09-23T04:06:35.596Z,1.90
2022-09-23T04:09:03.490Z,2.10
2022-09-23T04:11:29.904Z,2.55
2022-09-23T04:13:56.657Z,2.63
2022-09-23T04:16:23.301Z,1.98
2022-09-23T04:18:49.768Z,2.17
2022-09-23T04:21:16.194Z,2.50
2022-09-23T04:23:42.647Z,2.00
2022-09-23T04:26:10.313Z,2.30
2022-09-23T04:28:36.658Z,1.95
2022-09-23T04:31:04.582Z,2.30
2022-09-23T04:33:31.237Z,2.10
2022-09-23T04:35:57.579Z,2.10
2022-09-23T04:38:24.487Z,1.95
2022-09-23T04:40:50.966Z,2.13
2022-09-23T04:43:19.277Z,2.67
2022-09-23T04:45:45.660Z,2.08
2022-09-23T04:48:12.167Z,2.00
2022-09-23T04:50:38.631Z,1.88
2022-09-23T04:53:05.388Z,2.25
2022-09-23T04:55:31.917Z,2.00
2022-09-23T04:57:58.343Z,2.55
2022-09-23T05:00:26.204Z,2.50
2022-09-23T05:02:52.556Z,2.10
2022-09-23T05:05:19.024Z,2.63
2022-09-23T05:07:45.452Z,2.53
2022-09-23T05:10:11.811Z,2.35
2022-09-23T05:12:38.172Z,1.92
2022-09-23T05:15:05.367Z,2.20
2022-09-23T05:17:33.051Z,2.25
2022-09-23T05:19:59.740Z,2.00
2022-09-23T05:22:26.619Z,2.08
2022-09-23T05:24:53.261Z,2.15
2022-09-23T05:27:19.621Z,2.30
2022-09-23T05:29:46.535Z,2.33
2022-09-23T05:32:13.136Z,2.85
2022-09-23T05:34:41.103Z,2.90
2022-09-23T05:37:07.470Z,2.30
2022-09-23T05:39:33.863Z,2.40
2022-09-23T05:42:00.443Z,2.20
2022-09-23T05:44:26.844Z,2.17
2022-09-23T05:46:53.328Z,2.17
2022-09-23T05:49:19.705Z,1.98
2022-09-23T05:51:47.403Z,2.97
2022-09-23T05:54:13.776Z,2.50
2022-09-23T05:56:40.137Z,2.47
2022-09-23T05:59:06.645Z,2.60
2022-09-23T06:01:35.480Z,2.28
2022-09-23T06:04:04.302Z,2.25
2022-09-23T06:06:32.258Z,2.33
2022-09-23T06:09:00.519Z,2.97
2022-09-23T06:11:29.215Z,2.20
2022-09-23T06:13:57.108Z,2.88
2022-09-23T06:16:23.500Z,2.22
2022-09-23T06:18:49.924Z,2.70
2022-09-23T06:21:17.447Z,2.22
2022-09-23T06:23:44.943Z,2.33
2022-09-23T06:26:14.374Z,2.15
2022-09-23T06:28:42.983Z,2.88
2022-09-23T06:31:13.485Z,2.13
2022-09-23T06:33:40.524Z,2.33
2022-09-23T06:36:08.106Z,2.42
2022-09-23T06:38:34.867Z,2.28
2022-09-23T06:41:02.022Z,2.05
2022-09-23T06:43:30.426Z,2.20
2022-09-23T06:45:58.372Z,2.40
2022-09-23T06:48:26.028Z,2.20
2022-09-23T06:50:52.409Z,2.67
2022-09-23T06:53:19.437Z,2.20
2022-09-23T06:55:45.800Z,2.30
2022-09-23T06:58:12.150Z,2.20
2022-09-23T07:00:39.831Z,2.15
2022-09-23T07:03:07.090Z,1.90
2022-09-23T07:05:33.522Z,2.10
2022-09-23T07:08:00.002Z,2.28
2022-09-23T07:10:26.699Z,2.50
2022-09-23T07:12:53.221Z,2.00
2022-09-23T07:15:19.551Z,2.22
2022-09-23T07:17:47.218Z,2.38
2022-09-23T07:20:13.586Z,2.15
2022-09-23T07:22:39.927Z,2.70
2022-09-23T07:25:06.760Z,2.65
2022-09-23T07:27:33.163Z,2.22
2022-09-23T07:29:59.506Z,2.50
2022-09-23T07:32:25.955Z,2.30
2022-09-23T07:34:53.883Z,2.28
2022-09-23T07:37:20.235Z,2.00
2022-09-23T07:39:46.615Z,2.50
2022-09-23T07:42:12.984Z,2.58
2022-09-23T07:44:39.995Z,2.67
2022-09-23T07:47:06.485Z,2.60
2022-09-23T07:49:35.109Z,2.17
2022-09-23T07:52:03.355Z,2.70
2022-09-23T07:54:29.757Z,2.60
2022-09-23T07:56:56.232Z,2.03
2022-09-23T07:59:22.667Z,2.10
2022-09-23T08:01:51.619Z,1.88
2022-09-23T08:04:20.687Z,1.92
2022-09-23T08:06:49.504Z,1.83
2022-09-23T08:09:19.292Z,2.45
2022-09-23T08:11:46.895Z,2.45
2022-09-23T08:14:15.265Z,1.70
2022-09-23T08:16:42.512Z,2.33
2022-09-23T08:19:08.943Z,2.55
2022-09-23T08:21:35.350Z,1.70
2022-09-23T08:24:02.250Z,1.90
2022-09-23T08:26:29.999Z,2.10
2022-09-23T08:28:56.333Z,2.25
2022-09-23T08:31:23.267Z,2.00
2022-09-23T08:33:54.020Z,2.17
2022-09-23T08:36:20.375Z,2.10
2022-09-23T08:38:46.724Z,1.90
2022-09-23T08:41:19.956Z,2.00
2022-09-23T08:43:51.927Z,2.00
2022-09-23T08:46:26.423Z,1.85
2022-09-23T08:48:54.034Z,2.20
2022-09-23T08:51:25.624Z,1.95
2022-09-23T08:53:52.285Z,1.92
2022-09-23T08:56:22.253Z,2.15
2022-09-23T08:58:59.674Z,1.65
2022-09-23T09:01:34.556Z,1.85
2022-09-23T09:04:03.037Z,1.95
2022-09-23T09:06:45.557Z,2.28
2022-09-23T09:09:26.631Z,1.52
2022-09-23T09:11:59.470Z,1.90
2022-09-23T09:14:35.705Z,1.83
2022-09-23T09:17:05.208Z,1.67
2022-09-23T09:19:52.485Z,1.92
2022-09-23T09:22:21.195Z,2.03
2022-09-23T09:24:49.190Z,1.85
2022-09-23T09:27:15.807Z,2.30
2022-09-23T09:29:49.930Z,2.17
2022-09-23T09:32:30.236Z,1.65
2022-09-23T09:35:01.119Z,1.88
2022-09-23T09:37:32.879Z,1.60
2022-09-23T09:39:59.558Z,1.83
2022-09-23T09:42:30.544Z,1.90
2022-09-23T09:45:02.086Z,2.05
2022-09-23T09:47:40.468Z,1.90
2022-09-23T09:50:08.892Z,2.20
2022-09-23T09:52:42.489Z,1.80
2022-09-23T09:57:54.219Z,2.20
2022-09-23T10:00:42.926Z,2.17
2022-09-23T10:03:25.282Z,2.28
2022-09-23T10:05:53.256Z,2.10
2022-09-23T10:08:26.927Z,1.80
2022-09-23T10:13:27.009Z,1.98
2022-09-23T10:15:55.829Z,2.38
2022-09-23T10:18:29.049Z,2.03
2022-09-23T10:21:02.280Z,1.95
2022-09-23T10:23:30.240Z,1.90
2022-09-23T10:25:58.399Z,1.65
2022-09-23T10:28:39.714Z,1.95
2022-09-23T10:31:11.218Z,1.92
2022-09-23T10:33:40.714Z,2.25
2022-09-23T10:36:09.941Z,2.33
2022-09-23T10:38:36.534Z,2.15
2022-09-23T10:41:04.712Z,1.90
2022-09-23T10:43:39.656Z,1.92
2022-09-23T10:46:15.521Z,2.00
2022-09-23T10:48:53.839Z,2.30
2022-09-23T10:51:27.909Z,2.00
2022-09-23T10:54:02.759Z,2.30
2022-09-23T10:56:36.964Z,2.00
2022-09-23T10:59:26.897Z,2.38
2022-09-23T11:02:05.677Z,2.38
2022-09-23T11:05:03.062Z,1.88
2022-09-23T11:07:37.091Z,2.03
2022-09-23T11:10:46.265Z,2.78
2022-09-23T11:13:28.116Z,2.30
2022-09-23T11:16:06.477Z,2.17
2022-09-23T11:18:48.984Z,2.20
2022-09-23T11:21:31.126Z,2.25
2022-09-23T11:24:14.756Z,2.40
2022-09-23T11:26:49.438Z,2.30
2022-09-23T11:29:33.061Z,2.38
2022-09-23T11:32:17.574Z,2.33
2022-09-23T11:35:00.361Z,2.78
2022-09-23T11:37:31.912Z,1.77
2022-09-23T11:40:03.733Z,1.98
2022-09-23T11:42:35.325Z,1.77
2022-09-23T11:45:08.274Z,2.10
2022-09-23T11:47:40.811Z,2.05
2022-09-23T11:50:18.365Z,2.60
2022-09-23T11:52:49.314Z,2.10
2022-09-23T11:55:22.732Z,2.00
2022-09-23T11:57:52.736Z,2.10
2022-09-23T12:00:21.373Z,1.80
2022-09-23T12:03:05.389Z,1.63
2022-09-23T12:05:38.363Z,1.90
2022-09-23T12:08:14.941Z,1.88
2022-09-23T12:10:51.459Z,1.70
2022-09-23T12:13:23.678Z,1.88
2022-09-23T12:16:03.604Z,1.60
2022-09-23T12:18:43.209Z,1.80
2022-09-23T12:21:50.650Z,1.92
2022-09-23T12:24:46.851Z,1.60
2022-09-23T12:27:22.983Z,2.05
2022-09-23T12:29:54.472Z,2.10
2022-09-23T12:32:21.435Z,2.00
2022-09-23T12:34:50.783Z,1.65
2022-09-23T12:37:26.132Z,1.52
2022-09-23T12:39:53.765Z,1.73
2022-09-23T12:42:22.869Z,1.85
2022-09-23T12:44:49.535Z,1.90
2022-09-23T12:47:46.263Z,1.85
2022-09-23T12:50:49.451Z,1.77
2022-09-23T12:53:52.823Z,2.47
2022-09-23T12:56:22.872Z,2.25
2022-09-23T12:59:00.508Z,2.65
2022-09-23T13:01:27.974Z,2.53
2022-09-23T13:03:56.411Z,2.40
2022-09-23T13:06:22.848Z,1.92
2022-09-23T13:08:49.598Z,1.67
2022-09-23T13:11:22.796Z,1.83
2022-09-23T13:13:50.315Z,1.70
2022-09-23T13:16:25.198Z,1.95
2022-09-23T13:18:53.150Z,1.60
2022-09-23T13:22:12.399Z,1.60
2022-09-23T13:24:44.844Z,2.22
2022-09-23T13:27:21.431Z,2.05
2022-09-23T13:29:53.548Z,1.90
2022-09-23T13:32:22.535Z,2.03
2022-09-23T13:34:57.322Z,2.03
2022-09-23T13:37:28.120Z,1.75
2022-09-23T13:40:07.152Z,1.90
2022-09-23T13:42:37.213Z,2.10
2022-09-23T13:45:05.145Z,1.80
2022-09-23T13:47:34.598Z,1.67
2022-09-23T13:50:02.169Z,1.50
2022-09-23T13:52:31.484Z,1.77
2022-09-23T13:54:59.356Z,2.00
2022-09-23T13:57:27.721Z,1.90
2022-09-23T13:59:54.090Z,1.98
2022-09-23T14:02:20.542Z,1.85
2022-09-23T14:04:47.074Z,2.13
2022-09-23T14:07:16.451Z,2.03
2022-09-23T14:09:46.766Z,2.10
2022-09-23T14:12:15.594Z,2.10
2022-09-23T14:14:42.817Z,1.90
2022-09-23T14:17:17.097Z,2.20
2022-09-23T14:19:43.728Z,3.38
2022-09-23T14:22:22.423Z,2.53
2022-09-23T14:24:49.805Z,2.60
2022-09-23T14:27:20.276Z,2.30
2022-09-23T14:29:48.356Z,2.42
2022-09-23T14:32:17.560Z,2.00
2022-09-23T14:34:46.498Z,1.90
2022-09-23T14:37:21.553Z,2.10
2022-09-23T14:39:53.447Z,2.35
2022-09-23T14:42:23.440Z,2.08
2022-09-23T14:44:49.916Z,2.47
2022-09-23T14:47:16.429Z,2.30
2022-09-23T14:49:47.263Z,2.28
2022-09-23T14:52:13.668Z,2.13
2022-09-23T14:54:44.913Z,1.80
2022-09-23T14:57:27.067Z,1.90
2022-09-23T14:59:55.236Z,2.35
2022-09-23T15:02:32.363Z,2.30
2022-09-23T15:05:18.491Z,2.42
2022-09-23T15:07:49.380Z,2.00
2022-09-23T15:10:19.578Z,2.28
2022-09-23T15:12:47.423Z,2.28
2022-09-23T15:15:15.533Z,2.05
2022-09-23T15:17:42.161Z,1.80
2022-09-23T15:20:19.780Z,2.30
2022-09-23T15:22:47.861Z,2.13
2022-09-23T15:25:17.920Z,2.33
2022-09-23T15:27:58.305Z,2.33
2022-09-23T15:30:24.742Z,3.05
2022-09-23T15:32:51.106Z,2.60
2022-09-23T15:35:19.717Z,2.28
2022-09-23T15:37:48.278Z,2.30
2022-09-23T15:40:18.570Z,2.08
2022-09-23T15:42:46.419Z,2.40
2022-09-23T15:45:14.121Z,2.35
2022-09-23T15:47:40.647Z,1.73
2022-09-23T15:50:07.786Z,2.28
2022-09-23T15:52:34.147Z,1.95
2022-09-23T15:55:00.576Z,2.03
2022-09-23T15:57:26.969Z,1.48
2022-09-23T15:59:53.429Z,2.20
2022-09-23T16:02:23.612Z,2.65
2022-09-23T16:04:50.098Z,2.55
2022-09-23T16:07:16.498Z,3.17
2022-09-23T16:09:42.873Z,3.75
2022-09-23T16:12:11.363Z,3.88
2022-09-23T16:14:37.723Z,3.22
2022-09-23T16:17:04.102Z,2.90
2022-09-23T16:19:31.815Z,2.85
2022-09-23T16:21:58.238Z,2.50
2022-09-23T16:24:28.058Z,3.08
2022-09-23T16:26:54.968Z,4.93
2022-09-23T16:29:21.358Z,3.40
2022-09-23T16:31:47.797Z,2.95
2022-09-23T16:34:14.281Z,2.70
2022-09-23T16:36:43.264Z,2.47
2022-09-23T16:39:12.472Z,2.40
2022-09-23T16:41:39.564Z,2.20
2022-09-23T16:44:07.074Z,2.13
2022-09-23T16:46:34.469Z,2.33
2022-09-23T16:49:01.083Z,2.60
2022-09-23T16:51:30.149Z,2.45
2022-09-23T16:53:58.797Z,2.67
2022-09-23T16:56:28.723Z,2.35
2022-09-23T16:58:55.785Z,2.47
2022-09-23T17:01:23.712Z,2.65
2022-09-23T17:03:50.319Z,2.10
2022-09-23T17:06:16.963Z,2.50
2022-09-23T17:08:43.789Z,2.47
2022-09-23T17:11:11.493Z,2.42
2022-09-23T17:13:37.926Z,2.60
2022-09-23T17:16:04.671Z,2.63
2022-09-23T17:18:31.146Z,2.53
2022-09-23T17:20:59.463Z,2.70
2022-09-23T17:23:26.116Z,2.47
2022-09-23T17:25:52.763Z,2.65
2022-09-23T17:28:20.672Z,3.28
2022-09-23T17:30:47.059Z,2.80
2022-09-23T17:33:13.470Z,3.03
2022-09-23T17:35:40.004Z,3.35
2022-09-23T17:38:06.357Z,2.83
2022-09-23T17:40:32.912Z,3.20
2022-09-23T17:42:59.447Z,3.55
2022-09-23T17:45:27.171Z,3.17
2022-09-23T17:47:53.537Z,3.00
2022-09-23T17:50:19.969Z,3.42
2022-09-23T17:52:46.372Z,3.47
2022-09-23T17:55:12.967Z,3.20
2022-09-23T17:57:39.303Z,3.53
2022-09-23T18:00:06.906Z,3.42
2022-09-23T18:02:34.729Z,3.90
2022-09-23T18:05:01.125Z,3.20
2022-09-23T18:07:27.476Z,3.65
2022-09-23T18:09:53.834Z,3.40
2022-09-23T18:12:20.179Z,3.30
2022-09-23T18:14:47.876Z,3.33
2022-09-23T18:17:14.409Z,3.20
2022-09-23T18:19:42.073Z,3.40
2022-09-23T18:22:08.426Z,2.90
2022-09-23T18:24:34.950Z,3.55
2022-09-23T18:27:01.703Z,3.78
2022-09-23T18:29:28.191Z,3.75
2022-09-23T18:31:54.757Z,3.70
2022-09-23T18:34:21.594Z,3.60
2022-09-23T18:36:49.260Z,4.28
2022-09-23T18:39:15.897Z,3.90
2022-09-23T18:41:42.249Z,3.95
2022-09-23T18:44:09.242Z,3.58
2022-09-23T18:46:35.875Z,3.65
2022-09-23T18:49:02.417Z,4.68
2022-09-23T18:51:36.682Z,5.03
2022-09-23T18:54:06.105Z,5.15
2022-09-23T18:56:38.297Z,5.00
2022-09-23T18:59:05.859Z,4.68
2022-09-23T19:01:32.978Z,5.00
2022-09-23T19:04:01.191Z,4.47
2022-09-23T19:06:28.984Z,4.90
2022-09-23T19:08:55.423Z,4.85
2022-09-23T19:11:23.781Z,4.90
2022-09-23T19:13:53.337Z,4.53
2022-09-23T19:16:19.725Z,4.95
2022-09-23T19:18:46.460Z,4.55
2022-09-23T19:21:14.458Z,5.03
2022-09-23T19:23:45.488Z,4.70
2022-09-23T19:26:13.303Z,3.97
2022-09-23T19:28:41.000Z,4.50
2022-09-23T19:31:11.562Z,4.18
2022-09-23T19:33:38.213Z,4.45
2022-09-23T19:36:04.935Z,4.97
2022-09-23T19:38:31.280Z,4.20
2022-09-23T19:40:57.675Z,4.03
2022-09-23T19:43:24.042Z,3.95
2022-09-23T19:45:54.455Z,4.32
2022-09-23T19:48:20.967Z,4.75
2022-09-23T19:50:47.979Z,4.95
2022-09-23T19:53:15.172Z,4.90
2022-09-23T19:55:41.562Z,5.10
2022-09-23T19:58:08.914Z,5.20
2022-09-23T20:00:35.325Z,5.78
2022-09-23T20:03:03.079Z,5.45
2022-09-23T20:05:29.419Z,4.82
2022-09-23T20:07:56.186Z,5.22
2022-09-23T20:10:22.690Z,4.63
2022-09-23T20:12:49.063Z,5.30
2022-09-23T20:15:15.903Z,6.07
2022-09-23T20:17:42.510Z,5.63
2022-09-23T20:20:12.910Z,5.60
2022-09-23T20:22:39.256Z,5.47
2022-09-23T20:25:06.927Z,5.53
2022-09-23T20:27:33.254Z,5.60
2022-09-23T20:29:59.686Z,5.80
2022-09-23T20:32:26.416Z,6.25
2022-09-23T20:34:52.824Z,6.35
2022-09-23T20:37:21.357Z,5.72
2022-09-23T20:39:48.048Z,5.63
2022-09-23T20:42:15.509Z,5.82
2022-09-23T20:44:42.863Z,5.55
2022-09-23T20:47:09.470Z,5.25
2022-09-23T20:49:35.830Z,6.30
2022-09-23T20:52:02.741Z,5.85
2022-09-23T20:54:30.462Z,5.90
2022-09-23T20:56:56.896Z,5.60
2022-09-23T20:59:23.273Z,5.95
2022-09-23T21:01:49.676Z,5.93
2022-09-23T21:04:16.389Z,5.68
2022-09-23T21:06:42.745Z,5.95
2022-09-23T21:09:09.129Z,5.70
2022-09-23T21:11:36.807Z,6.10
2022-09-23T21:14:03.223Z,6.30
2022-09-23T21:16:30.215Z,6.07
2022-09-23T21:18:57.529Z,6.15
2022-09-23T21:21:23.972Z,5.85
2022-09-23T21:23:50.864Z,5.43
2022-09-23T21:26:19.324Z,6.40
2022-09-23T21:28:48.412Z,7.00
2022-09-23T21:31:16.716Z,6.85
2022-09-23T21:33:43.072Z,5.88
2022-09-23T21:36:09.711Z,6.70
2022-09-23T21:38:36.682Z,7.03
2022-09-23T21:41:05.763Z,6.65
2022-09-23T21:43:33.764Z,7.05
2022-09-23T21:46:03.539Z,7.03
2022-09-23T21:48:31.526Z,6.32
2022-09-23T21:50:59.727Z,6.35
2022-09-23T21:53:27.374Z,6.70
2022-09-23T21:56:00.846Z,5.95
2022-09-23T21:58:27.750Z,7.28
2022-09-23T22:00:54.162Z,5.97
2022-09-23T22:03:21.876Z,5.55
2022-09-23T22:05:48.286Z,5.85
2022-09-23T22:08:14.617Z,6.55
2022-09-23T22:10:40.989Z,6.40
2022-09-23T22:13:12.560Z,5.78
2022-09-23T22:15:39.332Z,5.38
2022-09-23T22:18:05.775Z,5.43
2022-09-23T22:20:33.776Z,5.30
2022-09-23T22:23:00.166Z,5.05
2022-09-23T22:25:26.740Z,5.18
2022-09-23T22:27:53.133Z,5.20
2022-09-23T22:30:19.507Z,5.35
2022-09-23T22:32:45.866Z,5.50
2022-09-23T22:35:14.280Z,5.30
2022-09-23T22:37:42.384Z,5.50
2022-09-23T22:40:11.419Z,5.90
2022-09-23T22:42:37.933Z,5.22
2022-09-23T22:45:05.357Z,5.38
2022-09-23T22:47:32.656Z,5.40
2022-09-23T22:49:59.081Z,4.90
2022-09-23T22:52:25.553Z,5.63
2022-09-23T22:54:53.238Z,5.45
2022-09-23T22:57:19.922Z,5.38
2022-09-23T22:59:46.613Z,5.30
2022-09-23T23:02:13.827Z,5.40
2022-09-23T23:04:40.256Z,4.95
2022-09-23T23:07:06.637Z,5.18
2022-09-23T23:09:32.970Z,5.38
2022-09-23T23:12:01.328Z,5.28
2022-09-23T23:14:27.665Z,5.47
2022-09-23T23:16:54.013Z,5.38
2022-09-23T23:19:20.544Z,5.60
2022-09-23T23:21:46.915Z,6.25
2022-09-23T23:24:15.490Z,5.85
2022-09-23T23:26:42.264Z,5.15
2022-09-23T23:29:11.581Z,5.90
2022-09-23T23:31:38.478Z,5.25
2022-09-23T23:34:04.986Z,5.72
2022-09-23T23:36:31.341Z,5.28
2022-09-23T23:38:57.679Z,5.45
2022-09-23T23:41:24.195Z,5.15
2022-09-23T23:43:54.947Z,5.30
2022-09-23T23:46:23.887Z,5.18
2022-09-23T23:48:50.554Z,4.75
2022-09-23T23:51:16.882Z,5.03
2022-09-23T23:53:43.607Z,5.40
2022-09-23T23:56:11.375Z,5.15
2022-09-23T23:58:38.565Z,4.68
